Time;durP1;ratioP1;P1;durP2;ratioP2;P2;SDS_P1;SDS_P2;PMS_P1;PMS_P2;Temp;Humidity;BMP_temperature;BMP_pressure;BME280_temperature;BME280_humidity;BME280_pressure;Samples;Min_cycle;Max_cycle;Signal;HPM_P1;HPM_P2
2021/01/26 00:01:14;;;;;;;42.63;34.60;;;1.50;99.90;;;;;;6143173;23;20176;-81
2021/01/26 00:03:41;;;;;;;42.85;35.55;;;1.50;99.90;;;;;;6143416;23;20200;-81
2021/01/26 00:06:08;;;;;;;42.50;32.47;;;1.60;99.90;;;;;;6169514;23;20199;-81
2021/01/26 00:08:35;;;;;;;44.37;34.17;;;1.50;99.90;;;;;;6143436;23;20183;-81
2021/01/26 00:11:03;;;;;;;41.33;34.07;;;1.60;99.90;;;;;;6143070;23;20231;-81
2021/01/26 00:13:31;;;;;;;43.97;33.50;;;1.60;99.90;;;;;;6142907;23;20176;-81
2021/01/26 00:15:58;;;;;;;47.60;34.77;;;1.50;99.90;;;;;;6168228;23;20478;-81
2021/01/26 00:18:25;;;;;;;43.90;34.90;;;1.60;99.90;;;;;;6142468;23;20179;-82
2021/01/26 00:20:52;;;;;;;45.47;34.57;;;1.60;99.90;;;;;;6166537;23;20198;-81
2021/01/26 00:23:20;;;;;;;40.53;33.20;;;1.50;99.90;;;;;;6168578;23;20184;-81
2021/01/26 00:25:49;;;;;;;44.53;35.20;;;1.50;99.90;;;;;;6143997;23;20515;-81
2021/01/26 00:28:17;;;;;;;42.87;33.50;;;1.50;99.90;;;;;;6169913;23;20169;-82
2021/01/26 00:30:44;;;;;;;44.60;32.97;;;1.60;99.90;;;;;;6176129;23;20176;-81
2021/01/26 00:33:14;;;;;;;40.97;33.40;;;1.50;99.90;;;;;;6174094;23;20169;-81
2021/01/26 00:35:41;;;;;;;40.73;32.37;;;1.50;99.90;;;;;;6172857;23;20177;-81
2021/01/26 00:38:09;;;;;;;42.50;32.00;;;1.70;99.90;;;;;;6180366;23;20161;-81
2021/01/26 00:40:38;;;;;;;41.57;31.67;;;1.50;99.90;;;;;;6157134;23;20140;-82
2021/01/26 00:43:06;;;;;;;39.67;33.10;;;1.50;99.90;;;;;;6177534;23;20265;-82
2021/01/26 00:45:33;;;;;;;44.50;34.60;;;1.60;99.90;;;;;;6179691;23;20406;-82
2021/01/26 00:48:00;;;;;;;40.10;31.60;;;1.60;99.90;;;;;;6178268;23;20172;-82
2021/01/26 00:50:29;;;;;;;42.00;31.03;;;1.70;99.90;;;;;;6178086;23;20172;-82
2021/01/26 00:52:56;;;;;;;36.43;29.53;;;1.70;99.90;;;;;;6173761;23;20179;-80
2021/01/26 00:55:32;;;;;;;38.43;30.97;;;1.70;99.90;;;;;;6146387;23;20582;-81
2021/01/26 00:58:02;;;;;;;36.58;28.50;;;1.80;99.90;;;;;;6169677;23;20173;-81
2021/01/26 01:00:31;;;;;;;34.67;29.63;;;1.70;99.90;;;;;;6169215;23;20176;-81
2021/01/26 01:03:04;;;;;;;40.93;30.17;;;1.70;99.90;;;;;;6143009;23;20211;-81
2021/01/26 01:05:31;;;;;;;33.83;27.73;;;1.80;99.90;;;;;;6170155;23;20187;-80
2021/01/26 01:07:58;;;;;;;39.73;31.60;;;1.60;99.90;;;;;;6142616;23;20172;-80
2021/01/26 01:10:28;;;;;;;37.23;29.07;;;1.60;99.90;;;;;;6167584;23;20590;-80
2021/01/26 01:12:55;;;;;;;36.77;28.03;;;1.50;99.90;;;;;;6142820;23;20153;-81
2021/01/26 01:15:23;;;;;;;38.43;30.40;;;1.50;99.90;;;;;;6141879;23;20182;-81
2021/01/26 01:17:50;;;;;;;36.47;28.53;;;1.50;99.90;;;;;;6141078;23;20709;-81
2021/01/26 01:20:20;;;;;;;35.63;27.40;;;1.50;99.90;;;;;;6141134;23;20318;-81
2021/01/26 01:22:47;;;;;;;39.03;27.40;;;1.50;99.90;;;;;;6141023;23;20211;-81
2021/01/26 01:25:15;;;;;;;38.17;27.60;;;1.50;99.90;;;;;;6167020;23;20176;-80
2021/01/26 01:27:42;;;;;;;34.93;26.23;;;1.40;99.90;;;;;;6163600;23;20216;-82
2021/01/26 01:30:14;;;;;;;32.03;27.47;;;1.30;99.90;;;;;;6139663;23;20469;-81
2021/01/26 01:32:42;;;;;;;40.43;30.83;;;1.30;99.90;;;;;;6163632;23;20485;-80
2021/01/26 01:35:10;;;;;;;38.63;28.97;;;1.30;99.90;;;;;;6139148;23;20633;-83
2021/01/26 01:37:37;;;;;;;36.73;29.17;;;1.20;99.90;;;;;;6140522;23;20226;-81
2021/01/26 01:40:06;;;;;;;41.70;28.60;;;1.30;99.90;;;;;;6141692;23;20177;-81
2021/01/26 01:42:33;;;;;;;37.43;27.50;;;1.20;99.90;;;;;;6166844;23;20196;-83
2021/01/26 01:45:00;;;;;;;40.17;29.73;;;1.30;99.90;;;;;;6166165;23;20172;-81
2021/01/26 01:47:35;;;;;;;40.00;27.67;;;1.40;99.90;;;;;;6165894;23;20192;-80
2021/01/26 01:50:07;;;;;;;37.97;30.20;;;1.40;99.90;;;;;;6165922;23;20160;-81
2021/01/26 01:52:37;;;;;;;37.83;28.20;;;1.50;99.90;;;;;;6165291;23;20554;-80
2021/01/26 01:55:09;;;;;;;34.42;26.95;;;1.40;99.90;;;;;;6166120;23;20173;-81
2021/01/26 01:57:41;;;;;;;35.00;27.87;;;1.40;99.90;;;;;;6163818;23;20226;-80
2021/01/26 02:00:11;;;;;;;37.33;27.87;;;1.30;99.90;;;;;;6139663;23;20164;-82
2021/01/26 02:02:44;;;;;;;35.57;27.93;;;1.40;99.90;;;;;;6164143;23;20569;-80
2021/01/26 02:05:14;;;;;;;36.73;27.73;;;1.30;99.90;;;;;;6151547;23;20165;-83
2021/01/26 02:07:42;;;;;;;33.53;25.63;;;1.30;99.90;;;;;;6176656;23;20200;-83
2021/01/26 02:10:10;;;;;;;35.40;25.30;;;1.30;99.90;;;;;;6174187;23;20173;-82
2021/01/26 02:12:37;;;;;;;35.33;27.70;;;1.30;99.90;;;;;;6172373;23;20172;-82
2021/01/26 02:15:06;;;;;;;31.63;24.33;;;1.20;99.90;;;;;;6172774;23;20168;-82
2021/01/26 02:17:45;;;;;;;33.80;26.63;;;1.40;99.90;;;;;;6147369;23;20240;-83
2021/01/26 02:20:46;;;;;;;34.37;26.13;;;1.30;99.90;;;;;;6171513;23;20171;-81
2021/01/26 02:23:44;;;;;;;29.70;24.40;;;1.40;99.90;;;;;;6170836;23;20177;-83
2021/01/26 02:26:39;;;;;;;32.07;23.83;;;1.30;99.90;;;;;;6107289;23;20633;-83
2021/01/26 02:29:15;;;;;;;29.13;25.47;;;1.20;99.90;;;;;;6145514;23;20630;-83
2021/01/26 02:32:16;;;;;;;35.93;27.13;;;1.20;99.90;;;;;;6169714;23;20165;-82
2021/01/26 02:35:17;;;;;;;32.30;26.10;;;1.30;99.90;;;;;;6157909;23;20173;-82
2021/01/26 02:38:23;;;;;;;36.40;26.30;;;1.30;99.90;;;;;;6145839;23;20538;-81
2021/01/26 02:40:57;;;;;;;39.27;28.23;;;1.20;99.90;;;;;;6172176;23;20145;-81
2021/01/26 02:43:51;;;;;;;33.90;25.37;;;1.30;99.90;;;;;;6172049;23;20180;-83
2021/01/26 02:46:31;;;;;;;34.63;28.83;;;1.30;99.90;;;;;;6134204;23;20685;-82
2021/01/26 02:49:09;;;;;;;36.67;28.03;;;1.20;99.90;;;;;;6161585;23;20160;-82
2021/01/26 02:51:50;;;;;;;38.10;29.50;;;1.20;99.90;;;;;;6138688;23;20168;-82
2021/01/26 02:54:25;;;;;;;43.23;31.20;;;1.20;99.90;;;;;;6173501;23;20461;-83
2021/01/26 02:57:01;;;;;;;37.10;29.57;;;1.30;99.90;;;;;;6172348;23;20199;-82
2021/01/26 02:59:37;;;;;;;40.73;29.03;;;1.20;99.90;;;;;;6146670;23;20215;-82
2021/01/26 03:02:08;;;;;;;44.77;31.60;;;1.20;99.90;;;;;;6170350;23;20172;-81
2021/01/26 03:04:43;;;;;;;43.47;32.77;;;1.00;99.90;;;;;;6145077;23;20171;-83
2021/01/26 03:07:16;;;;;;;44.73;32.80;;;1.10;99.90;;;;;;6170658;23;20223;-82
2021/01/26 03:09:46;;;;;;;47.10;33.73;;;1.20;99.90;;;;;;6145799;23;20172;-82
2021/01/26 03:12:18;;;;;;;40.40;31.27;;;1.10;99.90;;;;;;6170651;23;20161;-82
2021/01/26 03:14:50;;;;;;;41.23;31.90;;;1.10;99.90;;;;;;6170229;23;20157;-80
2021/01/26 03:17:25;;;;;;;44.37;34.00;;;1.10;99.90;;;;;;6172040;23;20258;-82
2021/01/26 03:19:54;;;;;;;43.67;32.63;;;1.10;99.90;;;;;;6172204;23;20175;-82
2021/01/26 03:22:26;;;;;;;45.87;32.03;;;1.10;99.90;;;;;;6148449;23;20192;-82
2021/01/26 03:24:55;;;;;;;44.50;35.50;;;1.10;99.90;;;;;;6178474;23;20167;-83
2021/01/26 03:27:30;;;;;;;47.73;34.80;;;1.00;99.90;;;;;;6154929;23;20217;-83
2021/01/26 03:29:59;;;;;;;43.63;33.73;;;1.00;99.90;;;;;;6179661;23;20199;-83
2021/01/26 03:32:33;;;;;;;47.23;35.37;;;0.90;99.90;;;;;;6179629;23;20180;-83
2021/01/26 03:35:00;;;;;;;52.80;37.37;;;0.90;99.90;;;;;;6152245;23;20189;-83
2021/01/26 03:37:27;;;;;;;48.27;35.00;;;0.90;99.90;;;;;;6149426;23;20202;-81
2021/01/26 03:39:54;;;;;;;48.70;34.80;;;0.90;99.90;;;;;;6174185;23;20639;-82
2021/01/26 03:42:25;;;;;;;50.97;34.57;;;1.00;99.90;;;;;;6174303;23;20180;-81
2021/01/26 03:45:14;;;;;;;47.07;33.63;;;1.10;99.90;;;;;;6175422;23;20157;-82
2021/01/26 03:47:54;;;;;;;46.30;32.77;;;1.20;99.90;;;;;;6147834;23;20200;-82
2021/01/26 03:50:32;;;;;;;48.07;35.37;;;1.30;99.90;;;;;;6172435;23;20165;-82
2021/01/26 03:53:15;;;;;;;46.50;35.57;;;1.40;99.90;;;;;;6147790;23;20489;-82
2021/01/26 03:55:51;;;;;;;40.87;31.53;;;1.50;99.90;;;;;;6146996;23;20153;-81
2021/01/26 03:58:31;;;;;;;39.83;31.20;;;1.40;99.90;;;;;;6174600;23;20182;-82
2021/01/26 04:01:09;;;;;;;36.60;29.67;;;1.50;99.90;;;;;;6158501;23;20140;-84
2021/01/26 04:03:48;;;;;;;33.60;26.50;;;1.50;99.90;;;;;;6178790;23;20181;-81
2021/01/26 04:06:23;;;;;;;35.40;29.13;;;1.40;99.90;;;;;;6142902;23;20192;-82
2021/01/26 04:08:56;;;;;;;35.90;27.80;;;1.60;99.90;;;;;;6167202;23;20168;-81
2021/01/26 04:11:28;;;;;;;37.33;28.57;;;1.50;99.90;;;;;;6168620;23;20259;-83
2021/01/26 04:14:02;;;;;;;33.07;26.17;;;1.40;99.90;;;;;;6167522;23;20483;-81
2021/01/26 04:16:35;;;;;;;35.08;26.95;;;1.40;99.90;;;;;;6169709;23;20196;-81
2021/01/26 04:19:05;;;;;;;33.00;25.67;;;1.40;99.90;;;;;;6142965;23;20156;-81
2021/01/26 04:21:33;;;;;;;40.30;30.37;;;1.40;99.90;;;;;;6172508;23;20156;-81
2021/01/26 04:24:01;;;;;;;34.23;26.70;;;1.40;99.90;;;;;;6171618;23;20211;-82
2021/01/26 04:26:32;;;;;;;35.07;26.80;;;1.40;99.90;;;;;;6172683;23;20203;-82
2021/01/26 04:29:00;;;;;;;37.97;28.30;;;1.30;99.90;;;;;;6171809;23;20157;-83
2021/01/26 04:31:27;;;;;;;36.60;27.33;;;1.30;99.90;;;;;;6173622;23;20172;-81
2021/01/26 04:33:54;;;;;;;38.90;28.37;;;1.30;99.90;;;;;;6147066;23;20173;-82
2021/01/26 04:36:23;;;;;;;38.13;27.93;;;1.30;99.90;;;;;;6146504;23;20228;-81
2021/01/26 04:38:51;;;;;;;35.95;28.40;;;1.20;99.90;;;;;;6171932;23;20176;-81
2021/01/26 04:41:28;;;;;;;35.40;28.63;;;1.20;99.90;;;;;;6171739;23;20518;-81
2021/01/26 04:44:20;;;;;;;40.80;29.97;;;1.20;99.90;;;;;;6170154;23;20191;-81
2021/01/26 04:46:58;;;;;;;40.20;31.33;;;1.30;99.90;;;;;;6136836;23;20414;-81
2021/01/26 04:49:36;;;;;;;36.40;27.40;;;1.20;99.90;;;;;;6172143;23;20167;-81
2021/01/26 04:52:14;;;;;;;38.77;28.97;;;1.20;99.90;;;;;;6175816;23;20164;-81
2021/01/26 04:54:56;;;;;;;38.07;28.23;;;1.10;99.90;;;;;;6147450;23;20176;-81
2021/01/26 04:57:51;;;;;;;45.10;32.07;;;1.10;99.90;;;;;;6173587;23;20203;-81
2021/01/26 05:00:30;;;;;;;35.80;26.53;;;1.20;99.90;;;;;;6176138;23;20546;-81
2021/01/26 05:03:24;;;;;;;36.87;27.70;;;1.20;99.90;;;;;;6151915;23;20192;-84
2021/01/26 05:05:57;;;;;;;37.70;26.13;;;1.20;99.90;;;;;;6181728;23;20180;-83
2021/01/26 05:08:28;;;;;;;37.83;28.37;;;1.20;99.90;;;;;;6165482;23;20176;-81
2021/01/26 05:11:03;;;;;;;33.40;26.73;;;1.20;99.90;;;;;;6139674;23;20176;-83
2021/01/26 05:13:36;;;;;;;34.17;25.77;;;1.30;99.90;;;;;;6153593;23;20158;-83
2021/01/26 05:16:09;;;;;;;32.23;25.80;;;1.30;99.90;;;;;;6174133;23;20218;-82
2021/01/26 05:18:43;;;;;;;34.27;28.17;;;1.40;99.90;;;;;;6172346;23;20176;-81
2021/01/26 05:21:24;;;;;;;32.33;25.57;;;1.20;99.90;;;;;;6167506;23;20175;-82
2021/01/26 05:23:58;;;;;;;35.23;25.33;;;1.30;99.90;;;;;;6165718;23;20257;-81
2021/01/26 05:26:28;;;;;;;28.00;23.13;;;1.10;99.90;;;;;;6140519;23;20255;-81
2021/01/26 05:28:55;;;;;;;31.33;24.53;;;1.20;99.90;;;;;;6141614;23;20173;-83
2021/01/26 05:31:28;;;;;;;33.03;24.53;;;1.40;99.90;;;;;;6165158;23;20161;-81
2021/01/26 05:34:03;;;;;;;28.57;23.70;;;1.30;99.90;;;;;;6166688;23;20157;-81
2021/01/26 05:36:32;;;;;;;31.70;25.73;;;1.50;99.90;;;;;;6167743;23;20219;-81
2021/01/26 05:38:59;;;;;;;33.03;25.33;;;1.30;99.90;;;;;;6168996;23;20239;-81
2021/01/26 05:41:26;;;;;;;33.67;25.80;;;1.30;99.90;;;;;;6144995;23;20258;-81
2021/01/26 05:43:57;;;;;;;29.33;24.30;;;1.10;99.90;;;;;;6168863;23;20184;-82
2021/01/26 05:47:26;;;;;;;30.30;24.57;;;1.20;99.90;;;;;;6144099;23;20680;-81
2021/01/26 05:50:38;;;;;;;29.77;23.87;;;1.10;99.90;;;;;;6168036;23;20601;-83
2021/01/26 05:53:31;;;;;;;31.53;24.53;;;1.40;99.90;;;;;;6167218;23;20664;-82
2021/01/26 05:56:18;;;;;;;31.47;23.13;;;1.00;99.90;;;;;;6168583;23;20192;-81
2021/01/26 05:58:55;;;;;;;29.47;24.03;;;1.20;99.90;;;;;;6142487;23;20188;-82
2021/01/26 06:01:35;;;;;;;27.33;22.37;;;1.40;99.90;;;;;;6167612;23;20180;-82
2021/01/26 06:04:23;;;;;;;29.60;22.63;;;1.40;99.90;;;;;;6146948;23;20255;-81
2021/01/26 06:07:09;;;;;;;31.63;23.63;;;1.40;99.90;;;;;;6173837;23;20203;-83
2021/01/26 06:10:19;;;;;;;29.77;23.70;;;1.30;99.90;;;;;;6151156;23;20164;-81
2021/01/26 06:13:22;;;;;;;31.20;24.43;;;1.40;99.90;;;;;;6176767;23;20169;-82
2021/01/26 06:16:24;;;;;;;27.77;21.97;;;1.60;99.90;;;;;;6176598;23;20200;-83
2021/01/26 06:19:16;;;;;;;29.53;21.63;;;1.50;99.90;;;;;;6173516;23;20172;-82
2021/01/26 06:21:53;;;;;;;26.73;21.30;;;1.50;99.90;;;;;;6173383;23;20173;-83
2021/01/26 06:24:42;;;;;;;28.27;21.10;;;1.60;99.90;;;;;;6174009;23;20180;-83
2021/01/26 06:27:48;;;;;;;27.70;21.37;;;1.50;99.90;;;;;;6173290;23;20196;-82
2021/01/26 06:30:30;;;;;;;32.07;20.90;;;1.50;99.90;;;;;;6170381;23;20180;-82
2021/01/26 06:33:52;;;;;;;29.93;23.37;;;1.50;99.90;;;;;;6170106;23;20180;-81
2021/01/26 06:36:41;;;;;;;24.73;20.13;;;1.50;99.90;;;;;;6146892;23;20200;-81
2021/01/26 06:39:52;;;;;;;23.47;20.73;;;1.50;99.90;;;;;;6170076;23;20145;-81
2021/01/26 06:42:29;;;;;;;22.47;18.00;;;1.40;99.90;;;;;;6129513;23;20169;-81
2021/01/26 06:49:48;;;;;;;24.40;20.23;;;1.40;99.90;;;;;;6162728;23;20234;-82
2021/01/26 06:52:45;;;;;;;23.70;19.43;;;1.40;99.90;;;;;;6165793;23;20153;-82
2021/01/26 06:56:00;;;;;;;25.57;20.50;;;1.60;99.90;;;;;;6137916;23;20172;-83
2021/01/26 06:59:19;;;;;;;25.67;20.30;;;1.50;99.90;;;;;;6161352;23;20172;-80
2021/01/26 07:02:21;;;;;;;26.98;21.98;;;1.50;99.90;;;;;;6144587;23;20646;-81
2021/01/26 07:05:24;;;;;;;35.57;24.07;;;1.60;99.90;;;;;;6145010;23;20144;-80
2021/01/26 07:08:41;;;;;;;29.97;24.57;;;1.60;99.90;;;;;;6165794;23;20176;-80
2021/01/26 07:11:49;;;;;;;33.90;24.93;;;1.60;99.90;;;;;;6161224;23;20207;-80
2021/01/26 07:14:42;;;;;;;34.30;24.83;;;1.70;99.90;;;;;;6156380;23;20622;-81
2021/01/26 07:18:35;;;;;;;33.83;26.63;;;1.80;99.90;;;;;;6149018;23;20207;-83
2021/01/26 07:29:18;;;;;;;42.93;30.67;;;1.90;99.90;;;;;;6163716;23;20172;-82
2021/01/26 07:32:22;;;;;;;48.20;33.60;;;1.90;99.90;;;;;;6144037;23;20176;-82
2021/01/26 07:35:59;;;;;;;50.77;33.17;;;2.00;99.90;;;;;;6141488;23;20183;-82
2021/01/26 07:39:38;;;;;;;47.77;32.40;;;2.00;99.90;;;;;;6169187;23;20177;-84
2021/01/26 07:42:48;;;;;;;51.77;35.53;;;1.90;99.90;;;;;;6138711;23;20183;-83
2021/01/26 07:48:36;;;;;;;52.77;38.17;;;1.90;99.90;;;;;;6154095;23;20287;-62
2021/01/26 07:51:09;;;;;;;48.83;33.73;;;1.90;99.90;;;;;;6181842;23;20629;-61
2021/01/26 07:53:45;;;;;;;51.07;34.73;;;1.80;99.90;;;;;;6181656;23;20513;-62
2021/01/26 07:56:18;;;;;;;50.53;31.73;;;1.90;99.90;;;;;;6181413;23;20676;-62
2021/01/26 07:58:47;;;;;;;47.57;32.47;;;1.90;99.90;;;;;;6206026;22;20204;-61
2021/01/26 08:01:19;;;;;;;50.97;33.07;;;2.00;99.90;;;;;;6272947;22;20168;-60
2021/01/26 08:03:46;;;;;;;50.47;32.60;;;1.80;99.90;;;;;;6272835;22;20654;-61
2021/01/26 08:06:44;;;;;;;49.97;33.17;;;1.90;99.90;;;;;;6273045;22;20170;-61
2021/01/26 08:09:15;;;;;;;48.03;32.83;;;1.90;99.90;;;;;;6273535;22;20239;-61
2021/01/26 08:12:07;;;;;;;47.17;31.13;;;1.90;99.90;;;;;;6275025;22;20174;-61
2021/01/26 08:14:39;;;;;;;47.20;31.03;;;1.90;99.90;;;;;;6245901;22;20174;-61
2021/01/26 08:17:11;;;;;;;45.07;31.67;;;1.90;99.90;;;;;;6273397;22;20165;-62
2021/01/26 08:19:44;;;;;;;46.80;32.43;;;2.00;99.90;;;;;;6275156;22;20220;-61
2021/01/26 08:22:29;;;;;;;48.03;30.57;;;2.00;99.90;;;;;;6276038;22;20176;-61
2021/01/26 08:25:03;;;;;;;42.63;29.80;;;2.10;99.90;;;;;;6274851;22;20511;-61
2021/01/26 08:27:51;;;;;;;56.07;35.17;;;2.10;99.90;;;;;;6275163;22;20595;-60
2021/01/26 08:30:46;;;;;;;49.63;31.40;;;2.10;99.90;;;;;;6274042;22;20204;-60
2021/01/26 08:33:16;;;;;;;45.30;30.90;;;2.00;99.90;;;;;;6275281;22;20162;-60
2021/01/26 08:36:09;;;;;;;51.03;30.73;;;2.00;99.90;;;;;;6275210;22;20186;-61
2021/01/26 08:38:49;;;;;;;44.67;30.40;;;2.00;99.90;;;;;;6275004;22;20193;-61
2021/01/26 08:41:35;;;;;;;48.33;31.93;;;2.00;99.90;;;;;;6274523;22;20168;-61
2021/01/26 08:44:03;;;;;;;44.60;30.87;;;2.00;99.90;;;;;;6272936;22;20174;-63
2021/01/26 08:46:40;;;;;;;41.43;28.93;;;2.00;99.90;;;;;;6274319;22;20171;-60
2021/01/26 08:49:24;;;;;;;43.90;29.07;;;2.00;99.90;;;;;;6274250;22;20190;-60
2021/01/26 08:51:53;;;;;;;44.17;30.23;;;2.00;99.90;;;;;;6274521;22;20174;-61
2021/01/26 08:54:40;;;;;;;44.30;30.40;;;2.00;99.90;;;;;;6274072;22;20638;-60
2021/01/26 08:57:42;;;;;;;57.97;36.83;;;2.00;99.90;;;;;;6274435;22;20174;-61
2021/01/26 09:00:37;;;;;;;52.53;34.77;;;2.00;99.90;;;;;;6269181;22;20193;-60
2021/01/26 09:03:33;;;;;;;49.83;30.98;;;2.00;99.90;;;;;;6274005;22;20205;-60
2021/01/26 09:06:06;;;;;;;60.20;36.87;;;2.00;99.90;;;;;;6274561;22;20166;-61
2021/01/26 09:08:49;;;;;;;63.03;37.50;;;2.00;99.90;;;;;;6274317;22;20670;-61
2021/01/26 09:11:21;;;;;;;58.97;34.17;;;2.10;99.90;;;;;;6269363;22;20510;-60
2021/01/26 09:13:50;;;;;;;65.50;38.87;;;2.00;99.90;;;;;;6272729;22;20155;-61
2021/01/26 09:16:23;;;;;;;54.63;36.77;;;2.10;99.90;;;;;;6272795;22;20163;-61
2021/01/26 09:18:54;;;;;;;59.27;35.40;;;2.10;99.90;;;;;;6274103;22;20204;-61
2021/01/26 09:21:22;;;;;;;60.40;36.10;;;2.20;99.90;;;;;;6274703;22;20600;-60
2021/01/26 09:23:53;;;;;;;59.67;39.43;;;2.30;99.90;;;;;;6274348;22;20178;-60
2021/01/26 09:26:21;;;;;;;60.37;37.53;;;2.40;99.90;;;;;;6273977;22;20162;-61
2021/01/26 09:28:50;;;;;;;58.80;36.47;;;2.30;99.90;;;;;;6274664;22;20198;-61
2021/01/26 09:31:20;;;;;;;62.27;39.57;;;2.40;99.90;;;;;;6274252;22;20548;-61
2021/01/26 09:33:47;;;;;;;63.73;38.97;;;2.40;99.90;;;;;;6273843;22;20269;-61
2021/01/26 09:36:16;;;;;;;56.83;35.80;;;2.30;99.90;;;;;;6274196;22;20612;-61
2021/01/26 09:38:46;;;;;;;65.13;38.93;;;2.20;99.90;;;;;;6273880;22;20194;-61
2021/01/26 09:41:20;;;;;;;63.05;38.92;;;2.30;99.90;;;;;;6274264;22;20252;-61
2021/01/26 09:43:48;;;;;;;58.43;36.93;;;2.40;99.90;;;;;;6274110;22;20172;-61
2021/01/26 09:46:26;;;;;;;57.63;37.43;;;2.40;99.90;;;;;;6272201;22;20173;-61
2021/01/26 09:48:56;;;;;;;61.50;36.40;;;2.20;99.90;;;;;;6274235;22;20202;-61
2021/01/26 09:51:26;;;;;;;60.73;36.93;;;2.20;99.90;;;;;;6274328;22;20158;-61
2021/01/26 09:54:01;;;;;;;65.20;42.17;;;2.20;99.90;;;;;;6274761;22;20176;-62
2021/01/26 09:56:31;;;;;;;73.77;43.33;;;2.30;99.90;;;;;;6274005;22;20158;-61
2021/01/26 09:58:58;;;;;;;61.50;37.97;;;2.30;99.90;;;;;;6273610;22;20202;-61
2021/01/26 10:01:27;;;;;;;70.70;41.27;;;2.20;99.90;;;;;;6274320;22;20173;-61
2021/01/26 10:03:58;;;;;;;66.70;42.20;;;2.30;99.90;;;;;;6273950;22;20193;-61
2021/01/26 10:06:26;;;;;;;67.40;42.37;;;2.40;99.90;;;;;;6274717;22;20212;-61
2021/01/26 10:08:53;;;;;;;71.90;42.70;;;2.40;99.90;;;;;;6273491;22;20666;-61
2021/01/26 10:11:30;;;;;;;77.20;42.80;;;2.30;99.90;;;;;;6273890;22;20252;-62
2021/01/26 10:14:15;;;;;;;69.80;43.10;;;2.40;99.90;;;;;;6273767;22;20157;-61
2021/01/26 10:16:46;;;;;;;65.37;41.07;;;2.40;99.90;;;;;;6273652;22;20157;-62
2021/01/26 10:19:16;;;;;;;70.83;41.33;;;2.40;99.90;;;;;;6273461;22;20602;-62
2021/01/26 10:21:43;;;;;;;66.47;39.80;;;2.50;99.90;;;;;;6273445;22;20382;-61
2021/01/26 10:24:14;;;;;;;64.53;41.50;;;2.50;99.90;;;;;;6273215;22;20529;-62
2021/01/26 10:26:42;;;;;;;57.70;36.33;;;2.50;99.90;;;;;;6272295;22;20166;-62
2021/01/26 10:29:22;;;;;;;57.87;36.63;;;2.50;99.90;;;;;;6273102;22;20493;-61
2021/01/26 10:31:50;;;;;;;60.43;38.27;;;2.50;99.90;;;;;;6274150;22;20164;-62
2021/01/26 10:34:34;;;;;;;54.23;36.03;;;2.50;99.90;;;;;;6272918;22;20358;-62
2021/01/26 10:37:30;;;;;;;59.17;36.40;;;2.40;99.90;;;;;;6272215;22;20169;-61
2021/01/26 10:40:15;;;;;;;53.67;35.57;;;2.50;99.90;;;;;;6273529;22;20217;-62
2021/01/26 10:42:54;;;;;;;62.17;39.47;;;2.50;99.90;;;;;;6272734;22;20197;-61
2021/01/26 10:45:35;;;;;;;56.20;35.23;;;2.50;99.90;;;;;;6272966;22;20158;-62
2021/01/26 10:48:07;;;;;;;56.47;37.30;;;2.50;99.90;;;;;;6273013;22;20259;-61
2021/01/26 10:50:34;;;;;;;56.07;37.93;;;2.60;99.90;;;;;;6271164;22;20163;-61
2021/01/26 10:53:01;;;;;;;60.93;37.13;;;2.50;99.90;;;;;;6273559;22;20641;-61
2021/01/26 10:55:28;;;;;;;61.03;39.90;;;2.50;99.90;;;;;;6273406;22;20177;-61
2021/01/26 10:57:56;;;;;;;58.80;37.80;;;2.50;99.90;;;;;;6273727;22;20177;-61
2021/01/26 11:00:26;;;;;;;62.60;41.67;;;2.50;99.90;;;;;;6271536;22;20178;-62
2021/01/26 11:02:53;;;;;;;63.20;39.53;;;2.40;99.90;;;;;;6271293;22;20510;-61
2021/01/26 11:05:21;;;;;;;61.87;36.97;;;2.40;99.90;;;;;;6272494;22;20571;-61
2021/01/26 11:07:48;;;;;;;65.27;41.07;;;2.30;99.90;;;;;;6272800;22;20162;-61
2021/01/26 11:10:16;;;;;;;62.67;41.67;;;2.30;99.90;;;;;;6273617;22;20522;-62
2021/01/26 11:12:43;;;;;;;63.78;39.30;;;2.40;99.90;;;;;;6273646;22;20173;-61
2021/01/26 11:15:15;;;;;;;68.20;42.60;;;2.30;99.90;;;;;;6271634;22;20570;-61
2021/01/26 11:17:43;;;;;;;75.90;46.07;;;2.20;99.90;;;;;;6271675;22;20216;-61
2021/01/26 11:20:12;;;;;;;79.97;47.67;;;2.20;99.90;;;;;;6273538;22;20221;-61
2021/01/26 11:22:39;;;;;;;72.77;44.43;;;2.40;99.90;;;;;;6271715;22;20204;-61
2021/01/26 11:25:08;;;;;;;83.40;49.07;;;2.30;99.90;;;;;;6272845;22;20193;-61
2021/01/26 11:27:36;;;;;;;81.67;46.10;;;2.30;99.90;;;;;;6272731;22;20220;-61
2021/01/26 11:30:04;;;;;;;80.60;47.80;;;2.30;99.90;;;;;;6272513;22;20836;-61
2021/01/26 11:32:35;;;;;;;78.77;45.93;;;2.30;99.90;;;;;;6272644;22;20166;-61
2021/01/26 11:35:03;;;;;;;75.87;45.23;;;2.40;99.90;;;;;;6272401;22;20170;-62
2021/01/26 11:37:30;;;;;;;74.40;43.57;;;2.30;99.90;;;;;;6273472;22;20672;-61
2021/01/26 11:39:57;;;;;;;82.27;47.30;;;2.30;99.90;;;;;;6272553;22;20197;-61
2021/01/26 11:42:24;;;;;;;78.73;47.03;;;2.40;99.90;;;;;;6275520;22;20253;-60
2021/01/26 11:44:51;;;;;;;84.00;50.00;;;2.50;99.90;;;;;;6274789;22;20194;-61
2021/01/26 11:47:18;;;;;;;79.37;46.80;;;2.60;99.90;;;;;;6273615;22;20184;-61
2021/01/26 11:49:45;;;;;;;74.27;45.70;;;2.60;99.90;;;;;;6275653;22;20500;-60
2021/01/26 11:52:13;;;;;;;76.80;45.43;;;2.70;99.90;;;;;;6275547;22;20189;-60
2021/01/26 11:54:40;;;;;;;77.07;47.13;;;2.70;99.90;;;;;;6274489;22;20719;-60
2021/01/26 11:57:07;;;;;;;71.50;44.13;;;2.70;99.90;;;;;;6276313;22;20166;-61
2021/01/26 11:59:35;;;;;;;72.43;42.40;;;2.60;99.90;;;;;;6275536;22;20212;-60
2021/01/26 12:02:03;;;;;;;72.40;44.23;;;2.80;99.90;;;;;;6276670;22;20170;-60
2021/01/26 12:04:30;;;;;;;71.67;43.97;;;2.80;99.90;;;;;;6274964;22;20205;-60
2021/01/26 12:06:57;;;;;;;65.90;43.23;;;2.90;99.90;;;;;;6274971;22;20180;-60
2021/01/26 12:09:25;;;;;;;66.77;42.10;;;3.00;99.90;;;;;;6275405;22;20194;-60
2021/01/26 12:11:51;;;;;;;67.37;41.87;;;2.90;99.90;;;;;;6274749;22;20271;-60
2021/01/26 12:14:18;;;;;;;62.93;40.77;;;2.90;99.90;;;;;;6274519;22;20189;-57
2021/01/26 12:16:45;;;;;;;64.33;41.47;;;2.90;99.90;;;;;;6274383;22;20179;-58
2021/01/26 12:19:12;;;;;;;64.83;41.73;;;2.90;99.90;;;;;;6273524;22;20193;-57
2021/01/26 12:21:39;;;;;;;63.23;45.30;;;3.00;99.90;;;;;;6275255;22;20173;-57
2021/01/26 12:24:08;;;;;;;61.73;41.13;;;3.10;99.90;;;;;;6273575;22;20235;-60
2021/01/26 12:26:35;;;;;;;62.67;40.97;;;3.20;99.90;;;;;;6274173;22;20695;-60
2021/01/26 12:29:02;;;;;;;55.97;37.83;;;3.40;99.90;;;;;;6272702;22;20209;-60
2021/01/26 12:31:29;;;;;;;51.57;37.57;;;3.70;99.90;;;;;;6273941;22;20190;-61
2021/01/26 12:33:56;;;;;;;50.50;34.50;;;4.10;99.90;;;;;;6273532;22;20170;-61
2021/01/26 12:36:24;;;;;;;48.93;34.87;;;4.60;99.90;;;;;;6273678;22;20158;-60
2021/01/26 12:38:50;;;;;;;45.80;33.13;;;5.00;99.90;;;;;;6274161;22;20190;-61
2021/01/26 12:41:18;;;;;;;40.83;31.20;;;5.20;99.90;;;;;;6274867;22;20189;-60
2021/01/26 12:43:45;;;;;;;66.70;41.63;;;5.30;99.90;;;;;;6274932;22;20190;-61
2021/01/26 12:46:12;;;;;;;52.75;36.28;;;5.40;99.90;;;;;;6274523;22;20177;-60
2021/01/26 12:48:40;;;;;;;40.10;30.60;;;5.50;99.90;;;;;;6274269;22;20205;-60
2021/01/26 12:51:07;;;;;;;36.10;28.87;;;5.60;99.90;;;;;;6275172;22;20652;-61
2021/01/26 12:53:34;;;;;;;38.40;27.98;;;5.80;99.90;;;;;;6274286;22;20162;-60
2021/01/26 12:56:01;;;;;;;37.80;29.40;;;5.60;99.90;;;;;;6274181;22;20567;-60
2021/01/26 12:58:28;;;;;;;32.45;26.27;;;5.80;99.90;;;;;;6274293;22;20202;-61
2021/01/26 13:00:55;;;;;;;30.90;26.27;;;6.00;99.90;;;;;;6274534;22;20181;-61
2021/01/26 13:03:22;;;;;;;33.58;26.85;;;6.20;99.90;;;;;;6272726;22;20224;-61
2021/01/26 13:05:49;;;;;;;31.63;24.30;;;6.40;99.90;;;;;;6272035;22;20207;-61
2021/01/26 13:08:16;;;;;;;33.53;24.13;;;6.60;99.90;;;;;;6273994;22;20273;-61
2021/01/26 13:10:43;;;;;;;23.95;19.90;;;6.40;99.90;;;;;;6274584;22;20710;-61
2021/01/26 13:13:10;;;;;;;24.63;20.60;;;6.60;99.90;;;;;;6274014;22;20166;-61
2021/01/26 13:15:38;;;;;;;27.08;21.73;;;6.70;99.90;;;;;;6274236;22;20158;-61
2021/01/26 13:18:05;;;;;;;24.40;21.38;;;6.70;99.90;;;;;;6273990;22;20158;-61
2021/01/26 13:20:33;;;;;;;22.83;19.27;;;7.00;99.90;;;;;;6274026;22;20290;-60
2021/01/26 13:23:00;;;;;;;22.50;19.40;;;6.90;99.90;;;;;;6272131;22;20234;-60
2021/01/26 13:25:27;;;;;;;23.08;19.50;;;6.30;99.90;;;;;;6274065;22;20277;-60
2021/01/26 13:27:54;;;;;;;23.55;19.98;;;5.90;99.90;;;;;;6274692;22;20177;-61
2021/01/26 13:30:22;;;;;;;24.83;20.53;;;5.60;99.90;;;;;;6274670;22;20170;-58
2021/01/26 13:32:51;;;;;;;25.75;20.50;;;5.60;99.90;;;;;;6274684;22;20173;-62
2021/01/26 13:35:20;;;;;;;24.10;20.43;;;6.00;99.90;;;;;;6274231;22;20166;-62